Latest Weather Observations for Lucinda

IDQ60801

Issued at 9:31 pm EST Saturday 4 July 2015 (issued every 30 minutes, with the page automatically refreshed every 10 minutes)

About weather observations | Map of weather stations | Latest weather observations for QLD | Other Formats
Station Details ID: 032141 Name: LUCINDA POINT Lat: -18.52 Lon: 146.39 Height: 10.0 m
Data from the previous 72 hours. | See also: Recent months for locations in Queensland
Date/Time
EST
Temp
°C
App
Temp
°C
Dew
Point
Rel
Hum
%
Delta-T
°C
Wind Press
QNH
hPa
Press
MSL
hPa
Rain
since 9 am
mm
Dir
 
Spd
km/h
Gust
km/h
Spd
kts
Gust
kts
04/09:00pm 21.4 21.6 17.6 79 2.3 SSE 13 20 7 11 1018.5 1018.5 0.0
04/08:30pm 21.3 21.7 17.3 78 2.5 SE 11 15 6 8 1018.3 1018.3 0.0
04/08:00pm 21.2 21.5 17.0 77 2.6 ESE 11 20 6 11 1018.1 1018.1 0.0
04/07:30pm 20.9 21.4 16.5 76 2.7 SE 9 11 5 6 1017.9 1017.9 0.0
04/07:00pm 20.7 21.0 16.1 75 2.8 SE 9 15 5 8 1017.9 1017.9 0.0
04/06:30pm 20.6 20.7 15.6 73 3.0 ESE 9 15 5 8 1017.4 1017.4 0.0
04/06:00pm 20.7 19.2 15.3 71 3.2 ESE 17 24 9 13 1017.3 1017.3 0.0
04/05:30pm 20.9 19.6 14.8 68 3.6 S 15 17 8 9 1017.2 1017.2 0.0
04/05:00pm 20.8 19.9 14.9 69 3.5 S 13 17 7 9 1017.1 1017.1 0.0
04/04:30pm 20.7 19.0 14.8 69 3.5 S 17 20 9 11 1017.1 1017.1 0.0
04/04:00pm 20.7 19.0 14.6 68 3.6 S 17 22 9 12 1016.9 1016.9 0.0
04/03:30pm 20.7 19.7 14.6 68 3.6 S 13 20 7 11 1016.8 1016.8 0.0
04/03:00pm 20.6 18.9 14.7 69 3.5 S 17 19 9 10 1017.0 1017.0 0.0
04/02:30pm 20.3 19.0 14.7 70 3.3 SSW 15 19 8 10 1017.2 1017.2 0.0
04/02:00pm 20.3 18.6 14.7 70 3.3 S 17 20 9 11 1017.3 1017.3 0.0
04/01:30pm 20.1 17.7 14.5 70 3.3 S 20 24 11 13 1017.6 1017.6 0.0
04/01:00pm 19.9 17.4 14.0 69 3.4 S 20 26 11 14 1018.2 1018.2 0.0
04/12:30pm 19.9 17.0 14.0 69 3.4 S 22 26 12 14 1018.9 1018.9 0.0
04/12:00pm 19.6 16.1 13.5 68 3.5 S 24 28 13 15 1019.3 1019.3 0.0
04/11:30am 19.5 16.4 13.4 68 3.5 S 22 26 12 14 1019.7 1019.7 0.0
04/11:00am 19.3 16.5 13.2 68 3.4 S 20 26 11 14 1019.9 1019.9 0.0
04/10:30am 19.3 16.0 13.9 71 3.1 S 24 30 13 16 1020.0 1020.0 0.0
04/10:00am 19.1 15.3 13.7 71 3.1 S 26 32 14 17 1020.1 1020.1 0.0
04/09:30am 19.1 15.8 13.9 72 3.0 S 24 30 13 16 1019.9 1019.9 0.0
04/09:00am 19.1 15.8 14.1 73 2.9 S 24 32 13 17 1019.7 1019.7 0.0
04/08:30am 18.9 15.3 14.2 74 2.7 S 26 32 14 17 1019.4 1019.4 0.0
04/08:00am 19.3 17.3 13.9 71 3.1 S 17 24 9 13 1019.0 1019.0 0.0
04/07:30am 19.0 16.5 14.1 73 2.8 SSE 20 30 11 16 1018.7 1018.7 0.0
04/07:00am 18.9 15.1 14.6 76 2.5 S 28 39 15 21 1018.3 1018.3 0.0
04/06:30am 19.5 17.7 14.5 73 2.9 S 17 26 9 14 1018.1 1018.1 0.0
04/06:00am 19.4 16.9 13.6 69 3.3 S 19 28 10 15 1017.9 1017.9 0.0
04/05:30am 19.7 17.3 14.3 71 3.1 SE 20 35 11 19 1017.8 1017.8 0.0
04/05:00am 19.8 16.7 14.4 71 3.1 SE 24 39 13 21 1017.6 1017.6 0.0
04/04:30am 20.5 17.0 14.4 68 3.6 ESE 26 39 14 21 1017.3 1017.3 0.0
04/04:00am 20.8 16.6 13.5 63 4.2 SE 28 35 15 19 1017.3 1017.3 0.0
04/03:30am 20.7 15.7 12.1 58 4.8 SE 30 39 16 21 1017.2 1017.2 0.0
04/03:00am 20.8 16.0 12.8 60 4.5 ESE 30 39 16 21 1017.4 1017.4 0.0
04/02:30am 20.8 18.2 13.7 64 4.1 SE 20 32 11 17 1017.7 1017.7 0.0
04/02:00am 20.8 18.9 14.2 66 3.8 SSE 17 24 9 13 1017.9 1017.9 0.0
04/01:30am 20.7 18.8 14.1 66 3.8 SSE 17 26 9 14 1018.2 1018.2 0.0
04/01:00am 20.9 18.2 14.5 67 3.7 SE 22 33 12 18 1018.5 1018.5 0.0
04/12:30am 21.1 17.2 14.5 66 3.9 SE 28 35 15 19 1018.8 1018.8 0.0
04/12:00am 21.0 17.9 14.4 66 3.8 ESE 24 35 13 19 1018.8 1018.8 0.0
 
Date/Time
EST
Temp
°C
App
Temp
°C
Dew
Point
Rel
Hum
%
Delta-T
°C
Wind Press
QNH
hPa
Press
MSL
hPa
Rain
since 9 am
mm
Dir
 
Spd
km/h
Gust
km/h
Spd
kts
Gust
kts
03/11:30pm 21.1 17.4 13.8 63 4.2 ESE 26 37 14 20 1019.0 1019.0 0.0
03/11:00pm 21.2 17.3 13.4 61 4.5 ESE 26 39 14 21 1019.4 1019.4 0.0
03/10:30pm 21.1 17.5 14.3 65 4.0 ESE 26 35 14 19 1019.3 1019.3 0.0
03/10:00pm 21.2 18.1 14.4 65 4.0 ESE 24 32 13 17 1019.1 1019.1 0.0
03/09:30pm 21.2 18.5 14.6 66 3.9 ESE 22 33 12 18 1018.9 1018.9 0.0
03/09:00pm 21.4 18.7 14.6 65 4.0 ESE 22 35 12 19 1018.7 1018.7 0.0
03/08:30pm 21.5 18.7 14.2 63 4.3 SE 22 33 12 18 1018.4 1018.4 0.0
03/08:00pm 21.5 18.9 13.9 62 4.4 ESE 20 32 11 17 1018.1 1018.1 0.0
03/07:30pm 21.5 19.9 14.9 66 3.9 ESE 17 24 9 13 1017.8 1017.8 0.0
03/07:00pm 21.6 20.6 14.5 64 4.2 ESE 13 20 7 11 1017.6 1017.6 0.0
03/06:30pm 21.6 20.5 14.3 63 4.3 ESE 13 20 7 11 1017.2 1017.2 0.0
03/06:00pm 21.7 20.9 13.9 61 4.5 ESE 11 19 6 10 1017.0 1017.0 0.0
03/05:30pm 21.8 19.7 13.7 60 4.7 ESE 17 20 9 11 1016.8 1016.8 0.0
03/05:00pm 21.9 19.9 15.0 65 4.1 ESE 19 24 10 13 1016.5 1016.5 0.0
03/04:30pm 22.1 21.0 15.2 65 4.1 ESE 15 24 8 13 1016.3 1016.3 0.0
03/04:00pm 22.1 20.3 14.5 62 4.5 ESE 17 24 9 13 1016.3 1016.3 0.0
03/03:30pm 21.9 20.5 15.5 67 3.8 ESE 17 28 9 15 1016.3 1016.3 0.0
03/03:00pm 21.9 20.7 16.0 69 3.5 ESE 17 26 9 14 1016.4 1016.4 0.0
03/02:30pm 21.8 20.0 16.1 70 3.4 ESE 20 28 11 15 1016.6 1016.6 0.0
03/02:00pm 21.6 20.4 16.1 71 3.3 SE 17 26 9 14 1016.9 1016.9 0.0
03/01:30pm 21.7 20.9 16.0 70 3.4 S 15 20 8 11 1017.1 1017.1 0.0
03/01:00pm 21.4 19.8 16.4 73 3.0 S 20 28 11 15 1017.5 1017.5 0.0
03/12:30pm 21.1 18.3 16.3 74 2.9 S 26 39 14 21 1017.9 1017.9 0.0
03/12:00pm 21.2 18.8 16.4 74 2.9 S 24 32 13 17 1018.3 1018.3 0.0
03/11:30am 21.3 18.9 16.3 73 3.0 S 24 30 13 16 1018.7 1018.7 0.0
03/11:00am 21.2 19.0 16.8 76 2.7 S 24 33 13 18 1019.0 1019.0 0.0
03/10:30am 21.5 19.8 17.3 77 2.6 S 22 30 12 16 1019.2 1019.2 0.0
03/10:00am 20.9 18.0 17.1 79 2.3 S 28 35 15 19 1019.2 1019.2 0.0
03/09:30am 18.9 17.9 16.5 86 1.4 SW 17 24 9 13 1019.3 1019.3 0.0
03/09:00am 18.8 17.0 16.9 89 1.1 SW 22 28 12 15 1019.0 1019.0 0.0
03/08:30am 18.3 16.9 16.6 90 1.0 WSW 19 20 10 11 1018.7 1018.7 0.0
03/08:00am 18.8 17.3 16.8 88 1.2 SW 20 24 11 13 1018.4 1018.4 0.0
03/07:30am 18.6 17.5 17.3 92 0.8 SW 19 20 10 11 1018.0 1018.0 0.0
03/07:00am 19.0 18.4 17.5 91 0.9 SW 17 19 9 10 1017.6 1017.6 0.0
03/06:30am 18.7 17.9 17.0 90 1.0 SW 17 19 9 10 1017.4 1017.4 0.0
03/06:00am 19.0 18.2 17.1 89 1.1 SW 17 19 9 10 1017.1 1017.1 0.0
03/05:30am 19.1 18.3 17.2 89 1.2 WSW 17 19 9 10 1016.9 1016.9 0.0
03/05:00am 19.0 18.3 17.3 90 1.0 SW 17 20 9 11 1016.8 1016.8 0.0
03/04:30am 18.7 18.0 17.4 92 0.8 WSW 17 20 9 11 1016.7 1016.7 0.0
03/04:00am 18.6 17.7 16.9 90 1.0 WSW 17 20 9 11 1016.8 1016.8 0.0
03/03:30am 18.6 17.7 16.9 90 1.0 SW 17 19 9 10 1017.0 1017.0 0.0
03/03:00am 18.7 17.9 17.0 90 1.0 WSW 17 19 9 10 1017.2 1017.2 0.0
03/02:30am 19.1 18.2 16.9 87 1.3 SW 17 20 9 11 1017.3 1017.3 0.0
03/02:00am 19.2 18.4 17.0 87 1.3 SW 17 19 9 10 1017.6 1017.6 0.0
03/01:30am 18.9 17.9 16.5 86 1.4 SW 17 20 9 11 1018.0 1018.0 0.0
03/01:00am 19.3 19.0 17.4 89 1.2 SW 15 19 8 10 1018.2 1018.2 0.0
03/12:30am 19.2 18.6 17.5 90 1.0 WSW 17 20 9 11 1018.5 1018.5 0.0
03/12:00am 19.7 19.3 18.0 90 1.0 SW 17 19 9 10 1018.6 1018.6 0.0
 
Date/Time
EST
Temp
°C
App
Temp
°C
Dew
Point
Rel
Hum
%
Delta-T
°C
Wind Press
QNH
hPa
Press
MSL
hPa
Rain
since 9 am
mm
Dir
 
Spd
km/h
Gust
km/h
Spd
kts
Gust
kts
02/11:30pm 20.1 20.5 18.2 89 1.2 SW 13 17 7 9 1018.8 1018.8 0.0
02/11:00pm 20.3 20.3 18.1 87 1.4 SSW 15 19 8 10 1019.1 1019.1 0.0
02/10:30pm 21.6 22.1 18.4 82 2.0 S 13 15 7 8 1019.2 1019.2 0.0
02/10:00pm 21.4 22.6 18.2 82 2.0 SSE 9 11 5 6 1019.4 1019.4 0.0
02/09:30pm 21.4 22.7 18.4 83 1.9 SSE 9 11 5 6 1019.3 1019.3 0.0
02/09:00pm 21.4 23.0 18.2 82 2.0 SSE 7 13 4 7 1019.3 1019.3 0.0
02/08:30pm 21.4 22.9 18.0 81 2.1 SE 7 11 4 6 1019.0 1019.0 0.0
02/08:00pm 21.3 22.8 18.1 82 2.0 ESE 7 9 4 5 1018.9 1018.9 0.0
02/07:30pm 21.3 22.8 17.7 80 2.2 E 6 9 3 5 1018.7 1018.7 0.0
02/07:00pm 21.4 23.0 17.8 80 2.2 ENE 6 7 3 4 1018.5 1018.5 0.0
02/06:30pm 21.4 22.6 17.4 78 2.5 NNE 7 9 4 5 1018.3 1018.3 0.0
02/06:00pm 21.5 22.4 17.5 78 2.5 NE 9 11 5 6 1018.1 1018.1 0.0
02/05:30pm 21.8 23.0 17.4 76 2.7 NE 7 9 4 5 1018.0 1018.0 0.0
02/05:00pm 22.0 23.0 16.9 73 3.1 ENE 7 9 4 5 1017.7 1017.7 0.0
02/04:30pm 22.3 23.3 16.8 71 3.4 ENE 7 11 4 6 1017.7 1017.7 0.0
02/04:00pm 22.8 23.7 16.6 68 3.8 E 7 11 4 6 1017.8 1017.8 0.0
02/03:30pm 22.8 23.2 16.4 67 3.9 ESE 9 13 5 7 1018.0 1018.0 0.0
02/03:00pm 23.2 23.7 16.5 66 4.1 ESE 9 13 5 7 1018.1 1018.1 0.0
02/02:30pm 23.3 24.1 17.3 69 3.7 ESE 9 15 5 8 1018.2 1018.2 0.0
02/02:00pm 22.9 23.1 16.7 68 3.8 ESE 11 17 6 9 1018.5 1018.5 0.0
02/01:30pm 23.1 23.2 16.4 66 4.1 SE 11 17 6 9 1019.0 1019.0 0.0
02/01:00pm 22.3 22.9 16.8 71 3.4 SSE 9 15 5 8 1019.5 1019.5 0.0
02/12:30pm 21.8 21.0 17.2 75 2.8 S 17 20 9 11 1020.0 1020.0 0.0
02/12:00pm 21.6 20.5 17.4 77 2.6 S 19 20 10 11 1020.3 1020.3 0.0
02/11:30am 21.5 20.5 17.9 80 2.2 S 20 24 11 13 1020.6 1020.6 0.0
02/11:00am 21.6 20.7 17.8 79 2.3 S 19 22 10 12 1021.1 1021.1 0.0
02/10:30am 21.0 20.5 17.8 82 2.0 SSW 17 20 9 11 1021.3 1021.3 0.0
02/10:00am 20.8 20.2 17.6 82 2.0 SSW 17 20 9 11 1021.5 1021.5 0.0
02/09:30am 20.5 19.9 17.5 83 1.8 SSW 17 20 9 11 1021.5 1021.5 0.0
02/09:00am 20.4 19.3 17.4 83 1.8 SSW 19 20 10 11 1021.2 1021.2 -
02/08:30am 20.1 19.3 17.1 83 1.8 SSW 17 19 9 10 1021.0 1021.0 -
02/08:00am 19.5 18.8 17.3 87 1.3 SW 17 19 9 10 1020.7 1020.7 -
02/05:30am 19.6 19.1 17.7 89 1.2 SW 17 20 9 11 1019.1 1019.1 0.0
02/05:00am 19.7 18.7 17.5 87 1.3 SW 19 20 10 11 1019.0 1019.0 0.0
02/04:30am 20.0 19.0 18.0 88 1.2 SW 20 20 11 11 1019.1 1019.1 0.0
02/04:00am 19.8 18.8 17.6 87 1.3 SW 19 20 10 11 1019.1 1019.1 0.0
02/03:30am 20.3 19.9 18.1 87 1.4 SW 17 20 9 11 1019.2 1019.2 0.0
02/03:00am 20.2 19.8 18.1 88 1.3 SW 17 19 9 10 1019.3 1019.3 0.0
02/02:30am 19.9 19.1 17.9 88 1.2 SW 19 20 10 11 1019.5 1019.5 0.0
02/02:00am 19.9 19.4 17.9 88 1.2 SW 17 19 9 10 1019.9 1019.9 0.0
02/01:30am 20.0 20.0 18.1 89 1.2 SW 15 17 8 9 1020.3 1020.3 0.0
02/01:00am 20.3 19.9 18.1 87 1.4 SW 17 19 9 10 1020.6 1020.6 0.0
02/12:30am 20.3 20.3 18.2 88 1.3 WSW 15 17 8 9 1020.7 1020.7 0.0
02/12:00am 20.5 20.3 18.4 88 1.3 SW 17 19 9 10 1020.9 1020.9 0.0
 
Date/Time
EST
Temp
°C
App
Temp
°C
Dew
Point
Rel
Hum
%
Delta-T
°C
Wind Press
QNH
hPa
Press
MSL
hPa
Rain
since 9 am
mm
Dir
 
Spd
km/h
Gust
km/h
Spd
kts
Gust
kts
01/11:30pm 20.4 20.9 18.3 88 1.3 SW 13 15 7 8 1021.0 1021.0 0.0
01/11:00pm 20.5 21.1 18.6 89 1.2 WSW 13 15 7 8 1021.3 1021.3 0.0
01/10:30pm 20.5 21.1 18.6 89 1.2 WSW 13 15 7 8 1021.3 1021.3 0.0
01/10:00pm 21.0 21.8 19.1 89 1.2 WSW 13 15 7 8 1021.3 1021.3 0.0

Other Formats:

Comma delimited format used in spreadsheet applications
http://www.bom.gov.au/fwo/IDQ60801/IDQ60801.94295.axf

JavaScript Object Notation format (JSON) in row-major order
http://www.bom.gov.au/fwo/IDQ60801/IDQ60801.94295.json